createdAt,value
2022-09-12T00:02:14.868Z,94.97
2022-09-12T00:07:17.714Z,95.47
2022-09-12T00:12:20.323Z,96.11
2022-09-12T00:17:23.022Z,96.99
2022-09-12T00:22:25.596Z,97.70
2022-09-12T00:27:28.428Z,98.12
2022-09-12T00:32:31.161Z,98.99
2022-09-12T00:37:34.488Z,99.51
2022-09-12T00:42:37.641Z,99.82
2022-09-12T00:47:40.598Z,100.00
2022-09-12T00:52:49.293Z,100.00
2022-09-12T00:57:57.936Z,100.00
2022-09-12T01:03:02.443Z,100.00
2022-09-12T01:08:05.700Z,100.00
2022-09-12T01:13:09.857Z,100.00
2022-09-12T01:18:19.086Z,100.00
2022-09-12T01:23:40.617Z,100.00
2022-09-12T01:28:55.569Z,100.00
2022-09-12T01:33:58.610Z,100.00
2022-09-12T01:39:03.826Z,100.00
2022-09-12T01:44:09.432Z,100.00
2022-09-12T01:49:23.541Z,100.00
2022-09-12T01:54:31.942Z,100.00
2022-09-12T01:59:39.089Z,100.00
2022-09-12T02:04:44.911Z,100.00
2022-09-12T02:09:51.196Z,100.00
2022-09-12T02:14:57.478Z,100.00
2022-09-12T02:20:07.036Z,100.00
2022-09-12T02:25:12.054Z,100.00
2022-09-12T02:30:16.675Z,100.00
2022-09-12T02:35:25.080Z,100.00
2022-09-12T02:40:28.314Z,100.00
2022-09-12T02:45:34.405Z,100.00
2022-09-12T02:50:37.557Z,100.00
2022-09-12T02:55:42.016Z,100.00
2022-09-12T03:00:51.990Z,100.00
2022-09-12T03:06:02.821Z,100.00
2022-09-12T03:11:24.633Z,99.98
2022-09-12T03:16:31.835Z,99.97
2022-09-12T03:21:45.598Z,100.00
2022-09-12T03:26:50.945Z,100.00
2022-09-12T03:31:58.191Z,99.98
2022-09-12T03:37:01.065Z,99.64
2022-09-12T03:42:03.681Z,99.32
2022-09-12T03:47:11.030Z,98.77
2022-09-12T03:52:13.961Z,98.56
2022-09-12T03:57:16.973Z,98.42
2022-09-12T04:02:19.708Z,97.95
2022-09-12T04:07:22.413Z,97.46
2022-09-12T04:12:25.469Z,96.85
2022-09-12T04:17:28.268Z,96.45
2022-09-12T04:22:32.111Z,96.43
2022-09-12T04:27:34.649Z,96.04
2022-09-12T04:32:38.162Z,95.88
2022-09-12T04:37:40.900Z,95.76
2022-09-12T04:42:43.521Z,95.36
2022-09-12T04:47:46.857Z,94.96
2022-09-12T04:52:50.866Z,94.71
2022-09-12T04:57:53.444Z,94.30
2022-09-12T05:02:55.980Z,93.90
2022-09-12T05:07:58.658Z,93.48
2022-09-12T05:13:01.259Z,93.20
2022-09-12T05:18:03.865Z,92.73
2022-09-12T05:23:06.550Z,92.57
2022-09-12T05:28:09.096Z,92.16
2022-09-12T05:33:11.850Z,91.87
2022-09-12T05:38:14.445Z,91.41
2022-09-12T05:43:17.333Z,90.82
2022-09-12T05:48:19.947Z,90.18
2022-09-12T05:53:22.749Z,89.58
2022-09-12T05:58:25.544Z,88.65
2022-09-12T06:03:28.150Z,88.14
2022-09-12T06:08:31.950Z,88.31
2022-09-12T06:13:37.002Z,87.24
2022-09-12T06:18:40.479Z,86.40
2022-09-12T06:23:44.487Z,85.04
2022-09-12T06:28:47.645Z,83.55
2022-09-12T06:33:52.025Z,81.66
2022-09-12T06:38:57.234Z,79.47
2022-09-12T06:44:00.398Z,78.35
2022-09-12T06:49:03.605Z,77.32
2022-09-12T06:54:06.316Z,76.48
2022-09-12T06:59:09.004Z,74.72
2022-09-12T07:04:12.111Z,72.78
2022-09-12T07:09:17.887Z,72.13
2022-09-12T07:14:20.485Z,70.51
2022-09-12T07:19:24.846Z,67.86
2022-09-12T07:24:27.441Z,66.89
2022-09-12T07:29:37.025Z,65.80
2022-09-12T07:34:40.785Z,65.33
2022-09-12T07:39:43.535Z,64.36
2022-09-12T07:44:46.206Z,61.58
2022-09-12T07:49:48.834Z,59.71
2022-09-12T07:54:51.688Z,60.14
2022-09-12T07:59:54.337Z,60.36
2022-09-12T08:04:57.803Z,60.58
2022-09-12T08:10:00.633Z,61.31
2022-09-12T08:15:03.425Z,61.05
2022-09-12T08:20:06.938Z,60.50
2022-09-12T08:25:10.153Z,58.73
2022-09-12T08:30:13.364Z,58.00
2022-09-12T08:35:16.059Z,57.58
2022-09-12T08:40:19.161Z,57.25
2022-09-12T08:45:27.361Z,57.96
2022-09-12T08:50:30.306Z,58.19
2022-09-12T08:55:46.725Z,59.69
2022-09-12T09:01:02.331Z,60.11
2022-09-12T09:06:07.685Z,60.83
2022-09-12T09:11:39.679Z,61.16
2022-09-12T09:16:43.974Z,61.71
2022-09-12T09:21:59.307Z,60.88
2022-09-12T09:27:14.304Z,58.28
2022-09-12T09:32:28.590Z,54.74
2022-09-12T09:37:38.024Z,47.11
2022-09-12T09:42:44.513Z,44.18
2022-09-12T09:47:49.869Z,43.71
2022-09-12T09:52:52.670Z,43.49
2022-09-12T09:57:55.278Z,44.04
2022-09-12T10:02:59.461Z,43.11
2022-09-12T10:08:04.345Z,43.84
2022-09-12T10:13:10.095Z,44.28
2022-09-12T10:18:32.798Z,43.62
2022-09-12T10:23:37.573Z,43.87
2022-09-12T10:28:46.080Z,44.32
2022-09-12T10:33:53.937Z,43.46
2022-09-12T10:38:57.962Z,43.36
2022-09-12T10:44:15.737Z,44.14
2022-09-12T10:49:24.461Z,44.14
2022-09-12T10:54:28.311Z,45.04
2022-09-12T10:59:34.540Z,45.68
2022-09-12T11:04:56.284Z,45.65
2022-09-12T11:10:11.914Z,45.00
2022-09-12T11:15:29.841Z,44.21
2022-09-12T11:20:39.362Z,42.04
2022-09-12T11:25:48.249Z,36.42
2022-09-12T11:31:10.755Z,29.40
2022-09-12T11:36:32.250Z,26.68
2022-09-12T11:41:36.947Z,27.09
2022-09-12T11:46:40.750Z,24.41
2022-09-12T11:51:59.193Z,27.19
2022-09-12T11:57:04.516Z,31.79
2022-09-12T12:02:12.230Z,35.90
2022-09-12T12:07:15.893Z,38.86
2022-09-12T12:12:21.572Z,39.45
2022-09-12T12:17:25.713Z,38.33
2022-09-12T12:22:28.490Z,39.44
2022-09-12T12:27:50.060Z,40.63
2022-09-12T12:32:52.737Z,41.62
2022-09-12T12:37:55.979Z,42.82
2022-09-12T12:42:58.501Z,43.14
2022-09-12T12:48:08.785Z,38.36
2022-09-12T12:53:28.141Z,33.03
2022-09-12T12:58:34.729Z,30.64
2022-09-12T13:03:38.864Z,33.21
2022-09-12T13:08:45.229Z,34.69
2022-09-12T13:13:53.655Z,36.22
2022-09-12T13:18:57.228Z,38.56
2022-09-12T13:24:04.605Z,40.15
2022-09-12T13:29:10.258Z,39.71
2022-09-12T13:34:18.602Z,35.70
2022-09-12T13:39:26.982Z,32.66
2022-09-12T13:44:31.310Z,30.16
2022-09-12T13:49:35.939Z,28.28
2022-09-12T13:54:39.250Z,27.34
2022-09-12T13:59:42.941Z,30.33
2022-09-12T14:05:06.123Z,32.66
2022-09-12T14:10:14.568Z,34.88
2022-09-12T14:15:19.866Z,36.86
2022-09-12T14:20:23.637Z,38.49
2022-09-12T14:25:29.744Z,40.32
2022-09-12T14:30:36.750Z,41.77
2022-09-12T14:35:57.900Z,42.43
2022-09-12T14:41:02.598Z,41.79
2022-09-12T14:46:07.369Z,40.82
2022-09-12T14:51:19.204Z,41.32
2022-09-12T14:56:23.084Z,42.33
2022-09-12T15:01:26.099Z,41.57
2022-09-12T15:06:30.329Z,40.52
2022-09-12T15:11:34.544Z,39.69
2022-09-12T15:16:37.470Z,38.85
2022-09-12T15:21:40.296Z,38.60
2022-09-12T15:26:42.969Z,38.37
2022-09-12T15:31:47.410Z,39.34
2022-09-12T15:36:49.966Z,40.27
2022-09-12T15:41:52.805Z,41.10
2022-09-12T15:46:55.508Z,41.79
2022-09-12T15:51:59.051Z,42.25
2022-09-12T15:57:01.726Z,43.15
2022-09-12T16:02:04.353Z,43.57
2022-09-12T16:07:06.958Z,44.33
2022-09-12T16:12:09.771Z,45.79
2022-09-12T16:17:12.622Z,47.47
2022-09-12T16:22:15.323Z,48.94
2022-09-12T16:27:18.026Z,50.39
2022-09-12T16:32:21.029Z,51.88
2022-09-12T16:37:23.738Z,53.13
2022-09-12T16:42:26.330Z,54.24
2022-09-12T16:47:32.329Z,55.14
2022-09-12T16:52:35.124Z,56.76
2022-09-12T16:57:38.217Z,57.88
2022-09-12T17:02:40.945Z,58.60
2022-09-12T17:07:43.533Z,59.74
2022-09-12T17:12:46.211Z,61.09
2022-09-12T17:17:49.067Z,62.21
2022-09-12T17:22:51.650Z,63.41
2022-09-12T17:27:54.706Z,64.36
2022-09-12T17:32:57.291Z,65.29
2022-09-12T17:37:59.887Z,65.81
2022-09-12T17:43:03.124Z,66.56
2022-09-12T17:48:11.304Z,67.59
2022-09-12T17:53:14.570Z,68.78
2022-09-12T17:58:17.409Z,69.56
2022-09-12T18:03:23.515Z,70.36
2022-09-12T18:08:26.250Z,70.96
2022-09-12T18:13:28.802Z,72.13
2022-09-12T18:18:31.502Z,72.89
2022-09-12T18:23:35.083Z,74.06
2022-09-12T18:28:39.284Z,75.97
2022-09-12T18:33:42.416Z,77.13
2022-09-12T18:38:45.512Z,77.49
2022-09-12T18:43:48.853Z,77.88
2022-09-12T18:48:51.974Z,78.21
2022-09-12T18:53:56.527Z,78.68
2022-09-12T18:59:00.002Z,79.44
2022-09-12T19:04:05.774Z,80.15
2022-09-12T19:09:09.237Z,80.93
2022-09-12T19:14:11.825Z,81.06
2022-09-12T19:19:14.489Z,81.55
2022-09-12T19:24:17.373Z,81.94
2022-09-12T19:29:20.194Z,81.90
2022-09-12T19:34:23.301Z,82.20
2022-09-12T19:39:25.900Z,82.62
2022-09-12T19:44:29.944Z,83.19
2022-09-12T19:49:32.542Z,83.99
2022-09-12T19:54:35.125Z,84.52
2022-09-12T19:59:38.026Z,84.70
2022-09-12T20:04:40.829Z,84.81
2022-09-12T20:09:43.529Z,84.65
2022-09-12T20:14:46.276Z,84.79
2022-09-12T20:19:48.902Z,85.28
2022-09-12T20:24:51.638Z,86.06
2022-09-12T20:29:54.638Z,85.71
2022-09-12T20:34:57.231Z,85.78
2022-09-12T20:39:59.871Z,85.93
2022-09-12T20:45:02.857Z,86.45
2022-09-12T20:50:05.944Z,86.45
2022-09-12T20:55:09.362Z,86.51
2022-09-12T21:00:12.429Z,86.30
2022-09-12T21:05:15.061Z,86.59
2022-09-12T21:10:19.004Z,87.86
2022-09-12T21:15:21.597Z,88.98
2022-09-12T21:20:24.176Z,88.91
2022-09-12T21:25:27.913Z,88.55
2022-09-12T21:30:30.504Z,89.19
2022-09-12T21:35:36.885Z,89.59
2022-09-12T21:40:39.494Z,89.85
2022-09-12T21:45:42.240Z,90.21
2022-09-12T21:50:49.601Z,90.32
2022-09-12T21:55:52.302Z,90.40
2022-09-12T22:00:55.277Z,89.81
2022-09-12T22:05:59.095Z,89.77
2022-09-12T22:11:03.007Z,89.85
2022-09-12T22:16:07.361Z,90.36
2022-09-12T22:21:12.902Z,90.52
2022-09-12T22:26:15.671Z,89.99
2022-09-12T22:31:18.969Z,89.82
2022-09-12T22:36:21.577Z,89.82
2022-09-12T22:41:24.863Z,90.28
2022-09-12T22:46:27.775Z,90.16
2022-09-12T22:51:31.623Z,89.89
2022-09-12T22:56:34.378Z,89.94
2022-09-12T23:01:37.008Z,90.78
2022-09-12T23:06:39.609Z,91.47
2022-09-12T23:11:42.321Z,91.93
2022-09-12T23:16:44.918Z,91.54
2022-09-12T23:21:47.737Z,91.28
2022-09-12T23:26:50.419Z,91.36
2022-09-12T23:31:53.233Z,91.37
2022-09-12T23:36:56.532Z,91.55
2022-09-12T23:41:59.748Z,90.97
2022-09-12T23:47:03.665Z,91.07
2022-09-12T23:52:06.231Z,91.15
2022-09-12T23:57:09.175Z,91.75
